Time;durP1;ratioP1;P1;durP2;ratioP2;P2;SDS_P1;SDS_P2;PMS_P1;PMS_P2;Temp;Humidity;BMP_temperature;BMP_pressure;BME280_temperature;BME280_humidity;BME280_pressure;Samples;Min_cycle;Max_cycle;Signal;HPM_P1;HPM_P2
2022/03/23 00:01:22;;;;;;;20.13;12.27;;;;;;;;;;5071740;28;20430;-85
2022/03/23 00:03:48;;;;;;;16.20;12.50;;;;;;;;;;5072838;28;20407;-88
2022/03/23 00:06:17;;;;;;;16.13;12.30;;;;;;;;;;5071876;28;20756;-85
2022/03/23 00:08:43;;;;;;;14.90;11.77;;;;;;;;;;5072930;28;20395;-89
2022/03/23 00:11:09;;;;;;;17.23;13.00;;;;;;;;;;5072124;28;20418;-90
2022/03/23 00:13:36;;;;;;;18.23;13.50;;;;;;;;;;5073390;28;20930;-90
2022/03/23 00:16:02;;;;;;;17.73;12.73;;;;;;;;;;5073186;28;20407;-88
2022/03/23 00:18:28;;;;;;;21.17;13.27;;;;;;;;;;5085271;28;20417;-87
2022/03/23 00:20:54;;;;;;;20.97;14.30;;;;;;;;;;5096803;28;20411;-92
2022/03/23 00:23:20;;;;;;;20.50;12.40;;;;;;;;;;5097349;28;20493;-91
2022/03/23 00:25:46;;;;;;;19.87;13.07;;;;;;;;;;5096793;28;20504;-92
2022/03/23 00:28:13;;;;;;;16.37;14.57;;;;;;;;;;5097124;28;20478;-92
2022/03/23 00:30:39;;;;;;;22.00;15.00;;;;;;;;;;5097097;28;20418;-92
2022/03/23 00:33:05;;;;;;;16.03;14.33;;;;;;;;;;5098874;28;20576;-92
2022/03/23 00:35:31;;;;;;;18.30;13.63;;;;;;;;;;5099849;28;20503;-92
2022/03/23 00:38:01;;;;;;;18.17;12.43;;;;;;;;;;5100128;28;20505;-89
2022/03/23 00:40:30;;;;;;;17.60;12.70;;;;;;;;;;5081333;28;20467;-90
2022/03/23 00:42:59;;;;;;;25.53;14.53;;;;;;;;;;5077277;28;20439;-88
2022/03/23 00:45:25;;;;;;;21.10;14.10;;;;;;;;;;5076133;28;20417;-90
2022/03/23 00:47:51;;;;;;;18.77;13.50;;;;;;;;;;5078905;28;20423;-90
2022/03/23 00:50:17;;;;;;;16.23;13.13;;;;;;;;;;5076813;28;20477;-90
2022/03/23 00:52:46;;;;;;;18.03;12.80;;;;;;;;;;5077467;28;20403;-89
2022/03/23 00:55:14;;;;;;;18.90;13.00;;;;;;;;;;5076309;28;20514;-90
2022/03/23 00:57:40;;;;;;;19.03;12.30;;;;;;;;;;5077886;28;20418;-90
2022/03/23 01:00:09;;;;;;;17.43;13.40;;;;;;;;;;5075913;28;20471;-90
2022/03/23 01:02:35;;;;;;;20.30;14.73;;;;;;;;;;5075557;28;20430;-89
2022/03/23 01:05:02;;;;;;;20.90;14.80;;;;;;;;;;5075557;28;20415;-91
2022/03/23 01:07:28;;;;;;;16.43;12.40;;;;;;;;;;5075605;28;20410;-91
2022/03/23 01:09:57;;;;;;;18.73;13.17;;;;;;;;;;5077234;28;20403;-91
2022/03/23 01:12:22;;;;;;;17.93;13.13;;;;;;;;;;5078310;28;20399;-91
2022/03/23 01:14:49;;;;;;;20.00;13.20;;;;;;;;;;5077264;28;20481;-91
2022/03/23 01:17:15;;;;;;;19.13;12.80;;;;;;;;;;5078051;28;20408;-91
2022/03/23 01:19:41;;;;;;;18.23;12.43;;;;;;;;;;5077344;28;20474;-93
2022/03/23 01:22:07;;;;;;;19.63;13.30;;;;;;;;;;5077115;28;20423;-89
2022/03/23 01:24:33;;;;;;;18.17;12.90;;;;;;;;;;5090542;28;20411;-89
2022/03/23 01:27:00;;;;;;;15.00;12.60;;;;;;;;;;5098372;28;20450;-89
2022/03/23 01:29:26;;;;;;;17.37;13.40;;;;;;;;;;5098288;28;20471;-89
2022/03/23 01:31:52;;;;;;;16.03;12.33;;;;;;;;;;5098646;28;20414;-90
2022/03/23 01:34:18;;;;;;;16.87;13.40;;;;;;;;;;5105641;28;20430;-90
2022/03/23 01:36:44;;;;;;;17.37;12.77;;;;;;;;;;5077272;28;20417;-90
2022/03/23 01:39:10;;;;;;;20.00;12.73;;;;;;;;;;5075291;28;20578;-90
2022/03/23 01:41:37;;;;;;;18.60;12.47;;;;;;;;;;5074900;28;20411;-91
2022/03/23 01:44:11;;;;;;;14.77;10.93;;;;;;;;;;5073968;28;20790;-90
2022/03/23 01:46:37;;;;;;;15.57;11.80;;;;;;;;;;5074701;28;20411;-91
2022/03/23 01:49:03;;;;;;;16.73;12.17;;;;;;;;;;5074907;28;20465;-91
2022/03/23 01:51:29;;;;;;;23.27;12.53;;;;;;;;;;5074298;28;20785;-90
2022/03/23 01:53:55;;;;;;;20.73;13.53;;;;;;;;;;5075258;28;21177;-90
2022/03/23 01:56:22;;;;;;;18.77;13.83;;;;;;;;;;5076203;28;20462;-90
2022/03/23 01:58:48;;;;;;;17.63;12.60;;;;;;;;;;5078984;28;20469;-90
2022/03/23 02:01:14;;;;;;;17.37;12.73;;;;;;;;;;5095552;28;20930;-84
2022/03/23 02:03:42;;;;;;;21.03;14.03;;;;;;;;;;5094090;28;20406;-86
2022/03/23 02:06:08;;;;;;;15.13;12.00;;;;;;;;;;5094258;28;20502;-86
2022/03/23 02:08:34;;;;;;;20.80;13.80;;;;;;;;;;5094249;28;20440;-86
2022/03/23 02:10:59;;;;;;;18.50;13.43;;;;;;;;;;5093025;28;20999;-86
2022/03/23 02:13:25;;;;;;;15.50;11.80;;;;;;;;;;5094255;28;20414;-85
2022/03/23 02:15:51;;;;;;;18.63;11.90;;;;;;;;;;5094109;28;20411;-85
2022/03/23 02:18:18;;;;;;;16.20;11.83;;;;;;;;;;5093642;28;20476;-86
2022/03/23 02:20:44;;;;;;;17.90;11.80;;;;;;;;;;5093931;28;20406;-85
2022/03/23 02:23:10;;;;;;;17.20;13.17;;;;;;;;;;5094001;28;20418;-85
2022/03/23 02:25:36;;;;;;;22.20;15.13;;;;;;;;;;5093943;28;20894;-84
2022/03/23 02:28:03;;;;;;;18.43;13.20;;;;;;;;;;5093848;28;20536;-83
2022/03/23 02:30:29;;;;;;;19.57;12.57;;;;;;;;;;5083509;28;20430;-85
2022/03/23 02:32:55;;;;;;;17.20;12.17;;;;;;;;;;5073028;28;20412;-86
2022/03/23 02:35:21;;;;;;;17.23;12.37;;;;;;;;;;5073254;28;20411;-85
2022/03/23 02:37:47;;;;;;;19.03;12.87;;;;;;;;;;5073212;28;20407;-86
2022/03/23 02:40:13;;;;;;;18.90;12.10;;;;;;;;;;5073181;28;20481;-86
2022/03/23 02:42:39;;;;;;;20.03;13.77;;;;;;;;;;5073294;28;20407;-86
2022/03/23 02:45:10;;;;;;;20.60;13.53;;;;;;;;;;5073375;28;20498;-84
2022/03/23 02:47:36;;;;;;;17.43;13.20;;;;;;;;;;5071579;28;20531;-85
2022/03/23 02:50:02;;;;;;;16.50;11.70;;;;;;;;;;5073043;28;20911;-85
2022/03/23 02:52:31;;;;;;;20.87;12.80;;;;;;;;;;5071829;28;20465;-85
2022/03/23 03:03:38;;;;;;;18.23;13.37;;;;;;;;;;5071627;28;20950;-85
2022/03/23 03:06:04;;;;;;;20.60;12.83;;;;;;;;;;5072959;28;20400;-84
2022/03/23 03:08:47;;;;;;;18.17;13.50;;;;;;;;;;5072813;28;20644;-83
2022/03/23 03:11:13;;;;;;;19.50;12.20;;;;;;;;;;5072829;28;20431;-83
2022/03/23 03:13:40;;;;;;;19.07;13.73;;;;;;;;;;5071440;28;20457;-83
2022/03/23 03:16:06;;;;;;;18.20;12.90;;;;;;;;;;5072316;28;20415;-83
2022/03/23 03:18:32;;;;;;;15.53;12.00;;;;;;;;;;5072141;28;20429;-83
2022/03/23 03:21:00;;;;;;;20.40;13.60;;;;;;;;;;5071628;28;20984;-84
2022/03/23 03:23:26;;;;;;;19.67;14.70;;;;;;;;;;5072891;28;20439;-84
2022/03/23 03:25:52;;;;;;;16.90;12.23;;;;;;;;;;5072866;28;20509;-83
2022/03/23 03:28:18;;;;;;;26.33;12.47;;;;;;;;;;5072705;28;20855;-83
2022/03/23 03:30:44;;;;;;;20.43;13.27;;;;;;;;;;5072859;28;20407;-83
2022/03/23 03:33:10;;;;;;;20.10;13.07;;;;;;;;;;5072477;28;20403;-83
2022/03/23 03:35:35;;;;;;;16.40;12.17;;;;;;;;;;5072809;28;20483;-83
2022/03/23 03:38:01;;;;;;;15.23;12.90;;;;;;;;;;5072745;28;20399;-85
2022/03/23 03:40:27;;;;;;;21.30;12.40;;;;;;;;;;5071422;28;20561;-84
2022/03/23 03:42:53;;;;;;;16.37;12.93;;;;;;;;;;5070870;28;20986;-84
2022/03/23 03:45:19;;;;;;;20.13;12.50;;;;;;;;;;5072347;28;20415;-83
2022/03/23 03:47:45;;;;;;;16.77;12.27;;;;;;;;;;5072149;28;20431;-85
2022/03/23 03:50:11;;;;;;;13.13;11.73;;;;;;;;;;5071097;28;20419;-84
2022/03/23 03:52:37;;;;;;;18.43;12.17;;;;;;;;;;5072491;28;20753;-84
2022/03/23 03:55:04;;;;;;;16.07;11.73;;;;;;;;;;5072460;28;20887;-85
2022/03/23 03:57:30;;;;;;;17.60;13.07;;;;;;;;;;5072373;28;20418;-86
2022/03/23 03:59:56;;;;;;;19.70;13.10;;;;;;;;;;5072222;28;20954;-84
2022/03/23 04:02:21;;;;;;;16.43;13.43;;;;;;;;;;5072072;28;20492;-84
2022/03/23 04:04:47;;;;;;;17.60;12.13;;;;;;;;;;5070996;28;20967;-83
2022/03/23 04:07:13;;;;;;;23.03;13.03;;;;;;;;;;5074174;28;20503;-83
2022/03/23 04:09:39;;;;;;;16.60;12.60;;;;;;;;;;5076409;28;20897;-85
2022/03/23 04:12:05;;;;;;;14.40;11.23;;;;;;;;;;5076184;28;20411;-84
2022/03/23 04:14:31;;;;;;;17.57;12.27;;;;;;;;;;5076099;28;20420;-85
2022/03/23 04:16:57;;;;;;;17.10;11.50;;;;;;;;;;5075682;28;20404;-84
2022/03/23 04:19:23;;;;;;;19.80;12.90;;;;;;;;;;5074586;28;20480;-84
2022/03/23 04:21:49;;;;;;;21.50;12.07;;;;;;;;;;5074691;28;20418;-85
2022/03/23 04:24:15;;;;;;;18.47;13.40;;;;;;;;;;5074591;28;20434;-85
2022/03/23 04:26:44;;;;;;;15.53;10.90;;;;;;;;;;5075929;28;20408;-85
2022/03/23 04:29:09;;;;;;;16.60;13.00;;;;;;;;;;5075589;28;20796;-85
2022/03/23 04:31:35;;;;;;;18.43;12.13;;;;;;;;;;5074159;28;20425;-85
2022/03/23 04:34:01;;;;;;;16.97;12.07;;;;;;;;;;5074330;28;20422;-85
2022/03/23 04:36:28;;;;;;;17.30;12.87;;;;;;;;;;5074497;28;20506;-84
2022/03/23 04:38:54;;;;;;;19.37;12.60;;;;;;;;;;5074173;28;20467;-85
2022/03/23 04:41:19;;;;;;;15.27;11.50;;;;;;;;;;5074362;28;20523;-83
2022/03/23 04:43:45;;;;;;;22.93;13.50;;;;;;;;;;5075560;28;20406;-84
2022/03/23 04:46:23;;;;;;;14.50;11.73;;;;;;;;;;5075020;28;20904;-84
2022/03/23 04:48:49;;;;;;;18.83;13.10;;;;;;;;;;5075611;28;20407;-83
2022/03/23 04:51:15;;;;;;;16.50;13.60;;;;;;;;;;5074234;28;20503;-83
2022/03/23 04:53:40;;;;;;;16.90;12.10;;;;;;;;;;5075267;28;20403;-83
2022/03/23 04:56:06;;;;;;;14.43;11.17;;;;;;;;;;5075266;28;20831;-85
2022/03/23 04:58:33;;;;;;;18.60;11.50;;;;;;;;;;5074124;28;20469;-85
2022/03/23 05:00:59;;;;;;;18.93;11.70;;;;;;;;;;5075322;28;20412;-84
2022/03/23 05:03:25;;;;;;;17.40;13.40;;;;;;;;;;5075063;28;20407;-86
2022/03/23 05:05:52;;;;;;;18.90;12.77;;;;;;;;;;5075568;28;20411;-84
2022/03/23 05:08:18;;;;;;;16.83;12.53;;;;;;;;;;5075326;28;20407;-83
2022/03/23 05:10:44;;;;;;;20.33;13.10;;;;;;;;;;5075333;28;20894;-85
2022/03/23 05:13:11;;;;;;;16.47;12.50;;;;;;;;;;5075309;28;20442;-84
2022/03/23 05:15:37;;;;;;;17.03;12.93;;;;;;;;;;5075552;28;20923;-85
2022/03/23 05:18:03;;;;;;;19.17;11.77;;;;;;;;;;5073698;28;20760;-85
2022/03/23 05:20:29;;;;;;;13.63;10.60;;;;;;;;;;5074865;28;20474;-86
2022/03/23 05:22:57;;;;;;;17.23;13.00;;;;;;;;;;5075199;28;20506;-86
2022/03/23 05:25:23;;;;;;;16.37;11.70;;;;;;;;;;5074806;28;20415;-85
2022/03/23 05:27:49;;;;;;;22.13;13.43;;;;;;;;;;5074670;28;20784;-85
2022/03/23 05:30:15;;;;;;;17.33;12.63;;;;;;;;;;5074989;28;20458;-86
2022/03/23 05:32:42;;;;;;;19.47;12.60;;;;;;;;;;5075077;28;20431;-86
2022/03/23 05:35:08;;;;;;;19.60;13.10;;;;;;;;;;5075255;28;20419;-85
2022/03/23 05:37:34;;;;;;;18.90;12.80;;;;;;;;;;5073234;28;20415;-86
2022/03/23 05:40:01;;;;;;;20.33;12.57;;;;;;;;;;5073223;28;20487;-86
2022/03/23 05:42:27;;;;;;;15.90;12.63;;;;;;;;;;5073056;28;20445;-86
2022/03/23 05:44:53;;;;;;;19.40;12.63;;;;;;;;;;5073398;28;20429;-85
2022/03/23 05:47:20;;;;;;;20.27;12.77;;;;;;;;;;5072779;28;20408;-85
2022/03/23 05:49:46;;;;;;;20.37;12.97;;;;;;;;;;5073006;28;20423;-85
2022/03/23 05:52:12;;;;;;;14.97;11.47;;;;;;;;;;5072977;28;20422;-86
2022/03/23 05:54:38;;;;;;;18.27;13.87;;;;;;;;;;5074386;28;20422;-86
2022/03/23 05:57:07;;;;;;;19.00;14.13;;;;;;;;;;5074328;28;20399;-85
2022/03/23 05:59:33;;;;;;;16.73;13.10;;;;;;;;;;5074044;28;20479;-85
2022/03/23 06:01:59;;;;;;;23.43;14.43;;;;;;;;;;5073809;28;20884;-85
2022/03/23 06:04:25;;;;;;;19.03;13.10;;;;;;;;;;5072488;28;20787;-87
2022/03/23 06:06:52;;;;;;;19.27;14.53;;;;;;;;;;5073800;28;20468;-84
2022/03/23 06:09:18;;;;;;;19.13;14.00;;;;;;;;;;5073841;28;21130;-84
2022/03/23 06:11:44;;;;;;;16.43;12.53;;;;;;;;;;5073809;28;20416;-84
2022/03/23 06:14:10;;;;;;;18.23;13.80;;;;;;;;;;5073792;28;20415;-83
2022/03/23 06:16:36;;;;;;;16.47;12.30;;;;;;;;;;5073367;28;20909;-85
2022/03/23 06:19:02;;;;;;;16.77;13.07;;;;;;;;;;5073165;28;20467;-84
2022/03/23 06:21:29;;;;;;;21.10;15.30;;;;;;;;;;5073473;28;20423;-86
2022/03/23 06:23:55;;;;;;;18.20;13.50;;;;;;;;;;5073753;28;20457;-85
2022/03/23 06:26:24;;;;;;;16.57;13.27;;;;;;;;;;5072553;28;20884;-86
2022/03/23 06:28:51;;;;;;;16.40;11.73;;;;;;;;;;5073126;28;20612;-87
2022/03/23 06:31:17;;;;;;;16.27;12.47;;;;;;;;;;5073406;28;20934;-84
2022/03/23 06:33:43;;;;;;;19.47;14.23;;;;;;;;;;5073763;28;20399;-86
2022/03/23 06:36:11;;;;;;;16.57;12.33;;;;;;;;;;5072728;28;20423;-84
2022/03/23 06:38:38;;;;;;;18.70;14.17;;;;;;;;;;5071551;28;20423;-86
2022/03/23 06:41:04;;;;;;;18.20;14.07;;;;;;;;;;5072542;28;20424;-86
2022/03/23 06:43:30;;;;;;;17.53;13.20;;;;;;;;;;5073729;28;20409;-85
2022/03/23 06:45:56;;;;;;;18.50;13.50;;;;;;;;;;5072087;28;20508;-83
2022/03/23 06:48:22;;;;;;;19.33;14.30;;;;;;;;;;5073865;28;20762;-85
2022/03/23 06:50:48;;;;;;;15.30;12.70;;;;;;;;;;5072457;28;20415;-86
2022/03/23 06:53:15;;;;;;;17.13;13.43;;;;;;;;;;5079805;28;20423;-85
2022/03/23 06:55:41;;;;;;;17.23;13.77;;;;;;;;;;5092445;28;20413;-85
2022/03/23 06:58:07;;;;;;;21.33;15.40;;;;;;;;;;5093587;28;20459;-87
2022/03/23 07:00:33;;;;;;;24.90;14.57;;;;;;;;;;5092641;28;20474;-85
2022/03/23 07:02:59;;;;;;;17.70;14.43;;;;;;;;;;5093551;28;20453;-84
2022/03/23 07:05:25;;;;;;;18.23;14.90;;;;;;;;;;5092444;28;20549;-84
2022/03/23 07:10:45;;;;;;;19.67;16.70;;;;;;;;;;5093690;28;20533;-85
2022/03/23 07:13:11;;;;;;;22.97;17.30;;;;;;;;;;5092213;28;20508;-87
2022/03/23 07:15:37;;;;;;;18.43;15.90;;;;;;;;;;5086213;28;20427;-85
2022/03/23 07:18:03;;;;;;;19.03;14.73;;;;;;;;;;5071792;28;20424;-83
2022/03/23 07:20:29;;;;;;;21.93;17.37;;;;;;;;;;5072012;28;20484;-85
2022/03/23 07:22:55;;;;;;;19.33;15.73;;;;;;;;;;5073287;28;20417;-86
2022/03/23 07:25:21;;;;;;;19.73;16.80;;;;;;;;;;5071582;28;20426;-85
2022/03/23 07:27:47;;;;;;;19.40;16.50;;;;;;;;;;5073002;28;20467;-84
2022/03/23 07:30:13;;;;;;;21.90;19.60;;;;;;;;;;5073066;28;20470;-84
2022/03/23 07:32:39;;;;;;;22.37;17.07;;;;;;;;;;5072449;28;20772;-85
2022/03/23 07:35:07;;;;;;;20.00;17.73;;;;;;;;;;5072774;28;20407;-85
2022/03/23 07:37:33;;;;;;;19.27;17.37;;;;;;;;;;5072691;28;20413;-84
2022/03/23 07:39:59;;;;;;;20.67;18.53;;;;;;;;;;5071437;28;20456;-85
2022/03/23 07:42:25;;;;;;;19.60;17.50;;;;;;;;;;5076442;28;20864;-84
2022/03/23 07:44:51;;;;;;;21.23;17.23;;;;;;;;;;5076596;28;20480;-85
2022/03/23 07:47:17;;;;;;;17.50;15.70;;;;;;;;;;5076335;28;20421;-84
2022/03/23 07:49:43;;;;;;;19.57;17.77;;;;;;;;;;5076477;28;20957;-85
2022/03/23 07:52:10;;;;;;;17.30;15.50;;;;;;;;;;5076364;28;20413;-84
2022/03/23 07:54:36;;;;;;;20.27;17.57;;;;;;;;;;5076418;28;20417;-85
2022/03/23 07:57:02;;;;;;;17.47;15.70;;;;;;;;;;5076229;28;20406;-84
2022/03/23 07:59:28;;;;;;;18.70;16.90;;;;;;;;;;5076086;28;20455;-84
2022/03/23 08:01:54;;;;;;;19.90;17.50;;;;;;;;;;5076082;28;20416;-85
2022/03/23 08:04:20;;;;;;;21.00;17.87;;;;;;;;;;5075988;28;20903;-84
2022/03/23 08:06:49;;;;;;;18.63;16.67;;;;;;;;;;5074561;28;20449;-85
2022/03/23 08:09:15;;;;;;;20.20;18.10;;;;;;;;;;5075767;28;20209;-85
2022/03/23 08:11:41;;;;;;;20.27;18.20;;;;;;;;;;5075887;28;20480;-83
2022/03/23 08:14:07;;;;;;;20.63;18.57;;;;;;;;;;5075896;28;20181;-85
2022/03/23 08:16:33;;;;;;;19.30;17.40;;;;;;;;;;5075434;28;20418;-86
2022/03/23 08:18:59;;;;;;;21.60;17.27;;;;;;;;;;5074288;28;20404;-86
2022/03/23 08:21:26;;;;;;;21.00;18.40;;;;;;;;;;5075797;28;20465;-87
2022/03/23 08:23:52;;;;;;;18.53;16.80;;;;;;;;;;5074394;28;20177;-86
2022/03/23 08:26:18;;;;;;;20.07;18.00;;;;;;;;;;5074291;28;20915;-86
2022/03/23 08:28:46;;;;;;;22.57;18.30;;;;;;;;;;5075161;28;20458;-85
2022/03/23 08:31:12;;;;;;;18.93;16.40;;;;;;;;;;5073938;28;20426;-86
2022/03/23 08:33:39;;;;;;;18.40;16.70;;;;;;;;;;5075751;28;20407;-85
2022/03/23 08:36:06;;;;;;;18.47;16.53;;;;;;;;;;5075661;28;20449;-86
2022/03/23 08:38:32;;;;;;;18.43;16.73;;;;;;;;;;5074154;28;20415;-86
2022/03/23 08:40:58;;;;;;;17.40;15.67;;;;;;;;;;5073921;28;20419;-86
2022/03/23 08:43:24;;;;;;;20.73;19.10;;;;;;;;;;5075461;28;20742;-86
2022/03/23 08:45:50;;;;;;;19.67;18.07;;;;;;;;;;5075016;28;20268;-86
2022/03/23 08:48:20;;;;;;;19.27;17.70;;;;;;;;;;5073792;28;20469;-84
2022/03/23 08:50:46;;;;;;;21.43;19.73;;;;;;;;;;5075250;28;20841;-85
2022/03/23 08:53:12;;;;;;;21.67;19.97;;;;;;;;;;5074702;28;20975;-85
2022/03/23 08:55:39;;;;;;;17.43;15.60;;;;;;;;;;5074965;28;20510;-85
2022/03/23 08:58:05;;;;;;;18.13;16.33;;;;;;;;;;5075111;28;20408;-85
2022/03/23 09:00:31;;;;;;;17.60;15.90;;;;;;;;;;5074708;28;20473;-85
2022/03/23 09:02:57;;;;;;;17.77;15.97;;;;;;;;;;5075020;28;20646;-85
2022/03/23 09:05:24;;;;;;;17.50;15.80;;;;;;;;;;5144895;22;20252;-83
2022/03/23 09:07:50;;;;;;;16.90;15.27;;;;;;;;;;5114312;28;20425;-84
2022/03/23 09:10:18;;;;;;;16.37;14.87;;;;;;;;;;5115636;28;21017;-83
2022/03/23 09:12:44;;;;;;;19.67;17.93;;;;;;;;;;5107157;28;20478;-83
2022/03/23 09:15:11;;;;;;;17.57;15.77;;;;;;;;;;5095201;28;20407;-87
2022/03/23 09:17:37;;;;;;;17.20;15.80;;;;;;;;;;5094751;28;20489;-85
2022/03/23 09:20:04;;;;;;;18.57;16.83;;;;;;;;;;5093498;28;20422;-85
2022/03/23 09:22:34;;;;;;;19.93;17.93;;;;;;;;;;5094926;28;20406;-84
2022/03/23 09:25:07;;;;;;;18.83;17.20;;;;;;;;;;5095030;28;20910;-90
2022/03/23 09:27:34;;;;;;;16.03;14.40;;;;;;;;;;5094502;28;20406;-87
2022/03/23 09:30:00;;;;;;;16.90;15.27;;;;;;;;;;5095163;28;20470;-88
2022/03/23 09:32:26;;;;;;;15.67;14.30;;;;;;;;;;5094621;28;20785;-89
2022/03/23 09:34:52;;;;;;;16.27;14.67;;;;;;;;;;5094691;28;20422;-85
2022/03/23 09:40:03;;;;;;;16.00;13.73;;;;;;;;;;5094507;28;20570;-87
2022/03/23 09:42:29;;;;;;;15.73;13.97;;;;;;;;;;5093215;28;20415;-91
2022/03/23 09:44:56;;;;;;;15.90;14.53;;;;;;;;;;5094985;28;20493;-84
2022/03/23 09:47:22;;;;;;;15.90;14.30;;;;;;;;;;5095010;28;20417;-87
2022/03/23 09:49:48;;;;;;;17.13;15.33;;;;;;;;;;5094270;28;20466;-90
2022/03/23 09:52:14;;;;;;;16.13;14.63;;;;;;;;;;5095787;28;20409;-89
2022/03/23 09:54:42;;;;;;;15.33;13.93;;;;;;;;;;5095586;28;20169;-89
2022/03/23 09:57:08;;;;;;;16.57;15.17;;;;;;;;;;5093460;28;20410;-90
2022/03/23 09:59:34;;;;;;;17.90;16.27;;;;;;;;;;5096578;28;20410;-90
2022/03/23 10:02:03;;;;;;;15.93;14.60;;;;;;;;;;5094166;28;20424;-89
2022/03/23 10:04:47;;;;;;;17.43;15.77;;;;;;;;;;5093991;28;20411;-90
2022/03/23 10:07:15;;;;;;;16.67;15.27;;;;;;;;;;5095557;28;20461;-92
2022/03/23 10:10:00;;;;;;;15.03;13.73;;;;;;;;;;5095398;28;20561;-93
2022/03/23 10:12:45;;;;;;;14.60;13.20;;;;;;;;;;5095093;28;20417;-88
2022/03/23 10:15:17;;;;;;;13.87;12.67;;;;;;;;;;5094715;28;20502;-92
2022/03/23 10:17:56;;;;;;;15.97;12.80;;;;;;;;;;5094552;28;20971;-92
2022/03/23 10:20:22;;;;;;;14.53;13.20;;;;;;;;;;5094092;28;20521;-91
2022/03/23 10:22:52;;;;;;;14.80;13.50;;;;;;;;;;5094130;28;20406;-90
2022/03/23 10:25:19;;;;;;;15.63;14.17;;;;;;;;;;5094860;28;20819;-92
2022/03/23 10:27:45;;;;;;;15.03;13.63;;;;;;;;;;5095617;28;20921;-93
2022/03/23 10:30:13;;;;;;;14.30;13.00;;;;;;;;;;5094157;28;20512;-90
2022/03/23 10:32:43;;;;;;;14.17;12.73;;;;;;;;;;5095602;28;20425;-91
2022/03/23 10:35:11;;;;;;;13.73;12.37;;;;;;;;;;5095711;28;20411;-91
2022/03/23 10:37:37;;;;;;;13.23;12.03;;;;;;;;;;5094251;28;20482;-91
2022/03/23 10:40:14;;;;;;;15.20;13.80;;;;;;;;;;5095435;28;20552;-92
2022/03/23 10:42:42;;;;;;;14.33;12.93;;;;;;;;;;5093570;28;20405;-92
2022/03/23 10:45:09;;;;;;;13.63;12.33;;;;;;;;;;5094837;28;20501;-91
2022/03/23 10:47:36;;;;;;;15.87;12.67;;;;;;;;;;5094235;28;20497;-91
2022/03/23 10:50:08;;;;;;;15.17;13.80;;;;;;;;;;5093882;28;20477;-94
2022/03/23 10:52:34;;;;;;;17.73;13.73;;;;;;;;;;5094587;28;20417;-93
2022/03/23 10:55:01;;;;;;;14.73;13.33;;;;;;;;;;5093951;28;20414;-89
2022/03/23 10:57:45;;;;;;;14.97;13.57;;;;;;;;;;5094983;28;20407;-90
2022/03/23 11:00:29;;;;;;;16.23;14.63;;;;;;;;;;5092190;28;20415;-89
2022/03/23 11:02:55;;;;;;;13.87;12.40;;;;;;;;;;5092332;28;20427;-89
2022/03/23 11:05:34;;;;;;;15.00;13.40;;;;;;;;;;5093495;28;20454;-89
2022/03/23 11:08:18;;;;;;;15.77;14.17;;;;;;;;;;5093913;28;20232;-89
2022/03/23 11:16:18;;;;;;;15.13;13.73;;;;;;;;;;5093563;28;20766;-90
2022/03/23 11:18:45;;;;;;;17.33;15.60;;;;;;;;;;5092493;28;20414;-89
2022/03/23 11:21:12;;;;;;;16.67;14.93;;;;;;;;;;5092549;28;20414;-88
2022/03/23 11:23:38;;;;;;;16.13;14.50;;;;;;;;;;5093713;28;20406;-89
2022/03/23 11:26:07;;;;;;;21.43;15.77;;;;;;;;;;5092374;28;20395;-89
2022/03/23 11:28:36;;;;;;;17.37;15.77;;;;;;;;;;5092745;28;20422;-89
2022/03/23 11:31:06;;;;;;;20.07;15.90;;;;;;;;;;5091888;28;20434;-89
2022/03/23 11:33:34;;;;;;;18.63;16.73;;;;;;;;;;5094685;28;20417;-89
2022/03/23 11:36:00;;;;;;;17.13;15.30;;;;;;;;;;5093347;28;20409;-90
2022/03/23 11:38:27;;;;;;;16.93;15.17;;;;;;;;;;5092370;28;20440;-90
2022/03/23 11:40:53;;;;;;;19.37;17.37;;;;;;;;;;5093626;28;20413;-91
2022/03/23 11:43:23;;;;;;;19.13;16.47;;;;;;;;;;5092738;28;20450;-90
2022/03/23 11:45:50;;;;;;;18.70;16.73;;;;;;;;;;5092990;28;20421;-89
2022/03/23 11:48:30;;;;;;;17.10;15.40;;;;;;;;;;5096525;28;20398;-89
2022/03/23 11:51:15;;;;;;;17.80;16.00;;;;;;;;;;5094213;28;20565;-90
2022/03/23 11:53:53;;;;;;;17.87;15.83;;;;;;;;;;5094264;28;20415;-90
2022/03/23 11:56:23;;;;;;;18.00;16.27;;;;;;;;;;5095825;28;20409;-90
2022/03/23 11:58:49;;;;;;;18.33;16.30;;;;;;;;;;5093436;28;20402;-90
2022/03/23 12:01:15;;;;;;;22.07;17.27;;;;;;;;;;5095200;28;20426;-91
2022/03/23 12:03:44;;;;;;;16.43;14.70;;;;;;;;;;5096260;28;20180;-88
2022/03/23 12:06:14;;;;;;;18.90;16.77;;;;;;;;;;5094473;28;20247;-89
2022/03/23 12:08:48;;;;;;;17.83;15.87;;;;;;;;;;5096443;28;20423;-89
2022/03/23 12:11:33;;;;;;;16.63;14.93;;;;;;;;;;5097645;28;20422;-88
2022/03/23 12:14:00;;;;;;;17.33;15.20;;;;;;;;;;5103117;28;20440;-91
2022/03/23 12:16:48;;;;;;;16.50;14.83;;;;;;;;;;5097403;28;20443;-89
2022/03/23 12:19:19;;;;;;;16.30;14.80;;;;;;;;;;5098960;28;20414;-91
2022/03/23 12:21:54;;;;;;;18.47;16.50;;;;;;;;;;5099588;28;20398;-89
2022/03/23 12:24:27;;;;;;;18.80;16.20;;;;;;;;;;5099306;28;20428;-89
2022/03/23 12:26:56;;;;;;;20.60;16.20;;;;;;;;;;5098205;28;20410;-90
2022/03/23 12:29:25;;;;;;;17.27;15.03;;;;;;;;;;5102891;28;20461;-88
2022/03/23 12:32:02;;;;;;;16.40;14.60;;;;;;;;;;5101902;28;20422;-89
2022/03/23 12:34:30;;;;;;;17.17;15.40;;;;;;;;;;5102329;28;20434;-90
2022/03/23 12:37:06;;;;;;;17.43;15.67;;;;;;;;;;5101427;28;20435;-90
2022/03/23 12:39:34;;;;;;;16.70;14.87;;;;;;;;;;5107678;28;20501;-91
2022/03/23 12:42:02;;;;;;;15.97;13.73;;;;;;;;;;5102423;28;20490;-91
2022/03/23 12:44:32;;;;;;;22.07;15.90;;;;;;;;;;5099170;28;20432;-90
2022/03/23 12:47:02;;;;;;;16.50;13.40;;;;;;;;;;5096723;28;20419;-90
2022/03/23 12:58:02;;;;;;;20.07;15.70;;;;;;;;;;5096380;28;20766;-89
2022/03/23 13:00:30;;;;;;;16.33;14.70;;;;;;;;;;5095552;28;20414;-89
2022/03/23 13:03:05;;;;;;;18.17;13.40;;;;;;;;;;5094680;28;20415;-89
2022/03/23 13:05:32;;;;;;;15.63;14.00;;;;;;;;;;5094106;28;20995;-89
2022/03/23 13:07:58;;;;;;;15.80;14.10;;;;;;;;;;5095704;28;20446;-89
2022/03/23 13:10:27;;;;;;;15.13;12.70;;;;;;;;;;5094497;28;20466;-91
2022/03/23 13:13:08;;;;;;;15.07;11.80;;;;;;;;;;5095688;28;20958;-89
2022/03/23 13:15:35;;;;;;;14.83;12.93;;;;;;;;;;5093920;28;20455;-90
2022/03/23 13:18:01;;;;;;;13.87;12.40;;;;;;;;;;5094181;28;20414;-88
2022/03/23 13:20:28;;;;;;;18.07;14.20;;;;;;;;;;5094327;28;20498;-88
2022/03/23 13:22:54;;;;;;;15.70;14.20;;;;;;;;;;5095524;28;20624;-88
2022/03/23 13:25:20;;;;;;;17.37;13.80;;;;;;;;;;5094215;28;20421;-89
2022/03/23 13:27:48;;;;;;;18.17;13.60;;;;;;;;;;5095168;28;20413;-89
2022/03/23 13:30:15;;;;;;;16.63;14.73;;;;;;;;;;5094004;28;20547;-87
2022/03/23 13:32:45;;;;;;;18.40;13.73;;;;;;;;;;5093575;28;20497;-86
2022/03/23 13:35:13;;;;;;;19.57;13.70;;;;;;;;;;5093793;28;20556;-87
2022/03/23 13:37:55;;;;;;;17.70;13.63;;;;;;;;;;5093353;28;20420;-87
2022/03/23 13:40:24;;;;;;;21.10;14.97;;;;;;;;;;5093178;28;20418;-86
2022/03/23 13:45:36;;;;;;;15.80;13.30;;;;;;;;;;5094693;28;20765;-87
2022/03/23 13:48:07;;;;;;;18.63;15.03;;;;;;;;;;5096884;28;20409;-87
2022/03/23 13:50:32;;;;;;;17.70;13.90;;;;;;;;;;5099937;28;20473;-87
2022/03/23 13:52:59;;;;;;;17.90;13.33;;;;;;;;;;5101191;28;20407;-86
2022/03/23 13:55:25;;;;;;;18.37;13.87;;;;;;;;;;5100220;28;20408;-86
2022/03/23 13:57:51;;;;;;;16.73;13.93;;;;;;;;;;5099073;28;20416;-90
2022/03/23 14:00:25;;;;;;;17.87;12.53;;;;;;;;;;5100842;28;20397;-91
2022/03/23 14:02:52;;;;;;;19.20;14.03;;;;;;;;;;5100390;28;20451;-89
2022/03/23 14:05:19;;;;;;;17.43;13.20;;;;;;;;;;5100136;28;20476;-90
2022/03/23 14:07:45;;;;;;;16.13;13.70;;;;;;;;;;5100585;28;20470;-91
2022/03/23 14:10:11;;;;;;;19.30;14.00;;;;;;;;;;5100758;28;20508;-90
2022/03/23 14:12:37;;;;;;;15.33;11.67;;;;;;;;;;5100797;28;20413;-89
2022/03/23 14:15:04;;;;;;;20.60;12.87;;;;;;;;;;5099994;28;20419;-88
2022/03/23 14:17:34;;;;;;;15.87;13.80;;;;;;;;;;5101344;28;20407;-88
2022/03/23 14:20:04;;;;;;;21.70;13.87;;;;;;;;;;5101781;28;20464;-90
2022/03/23 14:22:31;;;;;;;16.80;12.30;;;;;;;;;;5101137;28;20406;-89
2022/03/23 14:24:58;;;;;;;15.37;11.90;;;;;;;;;;5100237;28;20425;-88
2022/03/23 14:27:28;;;;;;;17.33;12.07;;;;;;;;;;5100697;28;20408;-89
2022/03/23 14:29:57;;;;;;;17.17;13.20;;;;;;;;;;5101430;28;20543;-87
2022/03/23 14:32:30;;;;;;;18.43;11.47;;;;;;;;;;5101146;28;20398;-87
2022/03/23 14:34:56;;;;;;;14.03;11.00;;;;;;;;;;5100889;28;20415;-88
2022/03/23 14:37:32;;;;;;;16.77;12.00;;;;;;;;;;5100118;28;20421;-87
2022/03/23 14:40:01;;;;;;;17.30;11.77;;;;;;;;;;5100149;28;20398;-88
2022/03/23 14:42:32;;;;;;;18.13;12.63;;;;;;;;;;5100366;28;20452;-88
2022/03/23 14:45:02;;;;;;;16.33;12.43;;;;;;;;;;5095604;28;20475;-83
2022/03/23 14:47:47;;;;;;;19.43;13.60;;;;;;;;;;5098416;28;20418;-84
2022/03/23 14:50:13;;;;;;;16.20;11.87;;;;;;;;;;5096883;28;20514;-84